createdAt,value
2016-08-19T00:00:09.195Z,99.99
2016-08-19T00:01:09.392Z,99.99
2016-08-19T00:02:09.193Z,99.99
2016-08-19T00:03:09.267Z,99.99
2016-08-19T00:04:09.268Z,99.99
2016-08-19T00:05:09.313Z,99.99
2016-08-19T00:06:09.296Z,99.99
2016-08-19T00:07:09.210Z,99.99
2016-08-19T00:08:09.294Z,99.99
2016-08-19T00:09:09.292Z,99.99
2016-08-19T00:10:09.432Z,99.99
2016-08-19T00:11:09.359Z,99.99
2016-08-19T00:12:09.344Z,99.99
2016-08-19T00:13:09.343Z,99.99
2016-08-19T00:14:09.420Z,99.99
2016-08-19T00:15:09.237Z,99.99
2016-08-19T00:16:09.789Z,99.99
2016-08-19T00:17:09.232Z,99.99
2016-08-19T00:18:09.462Z,99.99
2016-08-19T00:19:09.973Z,99.99
2016-08-19T00:20:09.323Z,99.99
2016-08-19T00:21:09.506Z,99.99
2016-08-19T00:22:09.454Z,99.99
2016-08-19T00:23:09.355Z,99.99
2016-08-19T00:24:09.431Z,99.99
2016-08-19T00:25:10.055Z,99.99
2016-08-19T00:26:09.345Z,99.99
2016-08-19T00:27:09.524Z,99.99
2016-08-19T00:28:09.341Z,99.99
2016-08-19T00:29:09.322Z,99.99
2016-08-19T00:30:12.223Z,99.99
2016-08-19T00:31:09.419Z,99.99
2016-08-19T00:32:09.277Z,99.99
2016-08-19T00:33:09.472Z,99.99
2016-08-19T00:34:09.500Z,99.99
2016-08-19T00:35:09.480Z,99.99
2016-08-19T00:36:09.456Z,99.99
2016-08-19T00:37:09.446Z,99.99
2016-08-19T00:38:09.465Z,99.99
2016-08-19T00:39:09.372Z,99.99
2016-08-19T00:40:09.408Z,99.99
2016-08-19T00:41:09.524Z,99.99
2016-08-19T00:42:09.312Z,99.99
2016-08-19T00:43:09.478Z,99.99
2016-08-19T00:44:09.501Z,99.99
2016-08-19T00:45:09.400Z,99.99
2016-08-19T00:46:09.560Z,99.99
2016-08-19T00:47:09.512Z,99.99
2016-08-19T00:48:09.417Z,99.99
2016-08-19T00:49:09.401Z,99.99
2016-08-19T00:50:09.997Z,99.99
2016-08-19T00:51:09.427Z,99.99
2016-08-19T00:52:09.506Z,99.99
2016-08-19T00:53:10.081Z,99.99
2016-08-19T00:54:09.401Z,99.99
2016-08-19T00:55:09.621Z,99.99
2016-08-19T00:56:09.526Z,99.99
2016-08-19T00:57:09.472Z,99.99
2016-08-19T00:58:09.461Z,99.99
2016-08-19T00:59:09.647Z,99.99
2016-08-19T01:00:09.430Z,99.99
2016-08-19T01:01:09.611Z,99.99
2016-08-19T01:02:09.467Z,99.99
2016-08-19T01:03:09.519Z,99.99
2016-08-19T01:04:09.572Z,99.99
2016-08-19T01:05:09.405Z,99.99
2016-08-19T01:06:09.498Z,99.99
2016-08-19T01:07:09.533Z,99.99
2016-08-19T01:08:09.582Z,99.99
2016-08-19T01:09:10.167Z,99.99
2016-08-19T01:10:09.457Z,99.99
2016-08-19T01:11:09.579Z,99.99
2016-08-19T01:12:09.518Z,99.99
2016-08-19T01:13:09.520Z,99.99
2016-08-19T01:14:09.447Z,99.99
2016-08-19T01:15:09.531Z,99.99
2016-08-19T01:16:09.487Z,99.99
2016-08-19T01:17:09.472Z,99.99
2016-08-19T01:18:09.578Z,99.99
2016-08-19T01:19:09.662Z,99.99
2016-08-19T01:20:09.414Z,99.99
2016-08-19T01:21:09.550Z,99.99
2016-08-19T01:22:09.759Z,99.99
2016-08-19T01:23:10.250Z,99.99
2016-08-19T01:24:09.483Z,99.99
2016-08-19T01:25:09.629Z,99.99
2016-08-19T01:26:09.441Z,99.99
2016-08-19T01:27:09.625Z,99.99
2016-08-19T01:28:09.567Z,99.99
2016-08-19T01:29:10.160Z,99.99
2016-08-19T01:30:09.563Z,99.99
2016-08-19T01:31:09.629Z,99.99
2016-08-19T01:32:09.578Z,99.99
2016-08-19T01:33:09.581Z,99.99
2016-08-19T01:34:11.797Z,99.99
2016-08-19T01:35:09.542Z,99.99
2016-08-19T01:36:09.569Z,99.99
2016-08-19T01:37:09.676Z,99.99
2016-08-19T01:38:09.591Z,99.99
2016-08-19T01:39:10.575Z,99.99
2016-08-19T01:40:09.724Z,99.99
2016-08-19T01:41:09.688Z,99.99
2016-08-19T01:42:09.617Z,99.99
2016-08-19T01:43:09.661Z,99.99
2016-08-19T01:44:09.554Z,99.99
2016-08-19T01:45:09.693Z,99.99
2016-08-19T01:46:10.272Z,99.99
2016-08-19T01:47:09.507Z,99.99
2016-08-19T01:48:09.578Z,99.99
2016-08-19T01:49:09.790Z,99.99
2016-08-19T01:50:11.372Z,99.99
2016-08-19T01:51:09.721Z,99.99
2016-08-19T01:52:09.573Z,99.99
2016-08-19T01:53:09.671Z,99.99
2016-08-19T01:54:09.778Z,99.99
2016-08-19T01:55:09.627Z,99.99
2016-08-19T01:56:10.725Z,99.99
2016-08-19T01:57:09.676Z,99.99
2016-08-19T01:58:09.682Z,99.99
2016-08-19T01:59:09.747Z,99.99
2016-08-19T02:00:09.673Z,99.99
2016-08-19T02:01:10.045Z,99.99
2016-08-19T02:02:09.629Z,99.99
2016-08-19T02:03:09.638Z,99.99
2016-08-19T02:04:09.718Z,99.99
2016-08-19T02:05:09.666Z,99.99
2016-08-19T02:06:09.667Z,99.99
2016-08-19T02:07:09.677Z,99.99
2016-08-19T02:08:09.827Z,99.99
2016-08-19T02:09:09.679Z,99.99
2016-08-19T02:10:09.562Z,99.99
2016-08-19T02:11:09.661Z,99.99
2016-08-19T02:12:09.646Z,99.99
2016-08-19T02:13:09.840Z,99.99
2016-08-19T02:14:09.661Z,99.99
2016-08-19T02:15:09.719Z,99.99
2016-08-19T02:16:09.751Z,99.99
2016-08-19T02:17:09.747Z,99.99
2016-08-19T02:18:09.756Z,99.99
2016-08-19T02:19:09.880Z,99.99
2016-08-19T02:20:09.697Z,99.99
2016-08-19T02:21:09.832Z,99.99
2016-08-19T02:22:09.718Z,99.99
2016-08-19T02:23:10.199Z,99.99
2016-08-19T02:24:10.470Z,99.99
2016-08-19T02:25:10.482Z,99.99
2016-08-19T02:26:09.598Z,99.99
2016-08-19T02:27:09.876Z,99.99
2016-08-19T02:28:09.877Z,99.99
2016-08-19T02:29:09.675Z,99.99
2016-08-19T02:30:09.780Z,99.99
2016-08-19T02:31:09.796Z,99.99
2016-08-19T02:32:09.799Z,99.99
2016-08-19T02:33:10.408Z,99.99
2016-08-19T02:34:09.614Z,99.99
2016-08-19T02:35:09.687Z,99.99
2016-08-19T02:36:10.550Z,99.99
2016-08-19T02:37:09.795Z,99.99
2016-08-19T02:38:11.399Z,99.99
2016-08-19T02:39:09.846Z,99.99
2016-08-19T02:40:09.824Z,99.99
2016-08-19T02:41:09.631Z,99.99
2016-08-19T02:42:09.979Z,99.99
2016-08-19T02:43:09.809Z,99.99
2016-08-19T02:44:09.804Z,99.99
2016-08-19T02:45:09.834Z,99.99
2016-08-19T02:46:09.806Z,99.99
2016-08-19T02:47:09.858Z,99.99
2016-08-19T02:48:10.467Z,99.99
2016-08-19T02:49:09.820Z,99.99
2016-08-19T02:50:09.995Z,99.99
2016-08-19T02:51:10.753Z,99.99
2016-08-19T02:52:09.792Z,99.99
2016-08-19T02:53:09.870Z,99.99
2016-08-19T02:54:09.892Z,99.99
2016-08-19T02:55:09.829Z,99.99
2016-08-19T02:56:09.901Z,99.99
2016-08-19T02:57:09.918Z,99.99
2016-08-19T02:58:10.608Z,99.99
2016-08-19T02:59:09.860Z,99.99
2016-08-19T03:00:09.774Z,99.99
2016-08-19T03:01:09.795Z,99.99
2016-08-19T03:02:09.944Z,99.99
2016-08-19T03:03:10.496Z,99.99
2016-08-19T03:04:09.784Z,99.99
2016-08-19T03:05:09.896Z,99.99
2016-08-19T03:06:09.834Z,99.99
2016-08-19T03:07:09.704Z,99.99
2016-08-19T03:08:09.767Z,99.99
2016-08-19T03:09:09.789Z,99.99
2016-08-19T03:10:09.799Z,99.99
2016-08-19T03:11:09.917Z,99.99
2016-08-19T03:12:09.936Z,99.99
2016-08-19T03:13:10.541Z,99.99
2016-08-19T03:14:09.909Z,99.99
2016-08-19T03:15:09.897Z,99.99
2016-08-19T03:16:10.619Z,99.99
2016-08-19T03:17:10.868Z,99.99
2016-08-19T03:18:10.568Z,99.99
2016-08-19T03:19:09.907Z,99.99
2016-08-19T03:20:09.902Z,99.99
2016-08-19T03:21:09.860Z,99.99
2016-08-19T03:22:09.861Z,99.99
2016-08-19T03:23:09.852Z,99.99
2016-08-19T03:24:09.859Z,99.99
2016-08-19T03:25:09.757Z,99.99
2016-08-19T03:26:09.985Z,99.99
2016-08-19T03:27:09.840Z,99.99
2016-08-19T03:28:09.964Z,99.99
2016-08-19T03:29:09.954Z,99.99
2016-08-19T03:30:10.022Z,99.99
2016-08-19T03:31:09.931Z,99.99
2016-08-19T03:32:09.884Z,99.99
2016-08-19T03:33:10.490Z,99.99
2016-08-19T03:34:09.795Z,99.99
2016-08-19T03:35:09.863Z,99.99
2016-08-19T03:36:09.933Z,99.99
2016-08-19T03:37:10.471Z,99.99
2016-08-19T03:38:10.067Z,99.99
2016-08-19T03:39:09.962Z,99.99
2016-08-19T03:40:09.972Z,99.99
2016-08-19T03:41:09.988Z,99.99
2016-08-19T03:42:10.007Z,99.99
2016-08-19T03:43:09.809Z,99.99
2016-08-19T03:44:09.905Z,99.99
2016-08-19T03:45:09.975Z,99.99
2016-08-19T03:46:10.549Z,99.99
2016-08-19T03:47:10.046Z,99.99
2016-08-19T03:48:09.821Z,99.99
2016-08-19T03:49:11.067Z,99.99
2016-08-19T03:50:10.621Z,99.99
2016-08-19T03:51:10.503Z,99.99
2016-08-19T03:52:09.991Z,99.99
2016-08-19T03:53:11.072Z,99.99
2016-08-19T03:54:09.853Z,99.99
2016-08-19T03:55:10.050Z,99.99
2016-08-19T03:56:10.037Z,99.99
2016-08-19T03:57:10.080Z,99.99
2016-08-19T03:58:10.733Z,99.99
2016-08-19T03:59:09.850Z,99.99
2016-08-19T04:00:10.060Z,99.99
2016-08-19T04:01:10.022Z,99.99
2016-08-19T04:02:10.179Z,99.99
2016-08-19T04:03:09.943Z,99.99
2016-08-19T04:04:10.085Z,99.99
2016-08-19T04:05:11.456Z,99.99
2016-08-19T04:06:09.999Z,99.99
2016-08-19T04:07:09.888Z,99.99
2016-08-19T04:08:09.983Z,99.99
2016-08-19T04:09:10.174Z,99.99
2016-08-19T04:10:10.079Z,99.99
2016-08-19T04:11:10.089Z,99.99
2016-08-19T04:12:10.077Z,99.99
2016-08-19T04:13:09.991Z,99.99
2016-08-19T04:14:09.978Z,99.99
2016-08-19T04:15:10.157Z,99.99
2016-08-19T04:16:09.978Z,99.99
2016-08-19T04:17:10.032Z,99.99
2016-08-19T04:18:10.020Z,99.99
2016-08-19T04:19:10.166Z,99.99
2016-08-19T04:20:10.050Z,99.99
2016-08-19T04:21:09.985Z,99.99
2016-08-19T04:22:10.111Z,99.99
2016-08-19T04:23:09.990Z,99.99
2016-08-19T04:24:10.139Z,99.99
2016-08-19T04:25:10.069Z,99.99
2016-08-19T04:26:10.120Z,99.99
2016-08-19T04:27:10.101Z,99.99
2016-08-19T04:28:10.213Z,99.99
2016-08-19T04:29:09.943Z,99.99
2016-08-19T04:30:10.100Z,99.99
2016-08-19T04:31:10.059Z,99.99
2016-08-19T04:32:10.317Z,99.99
2016-08-19T04:33:10.680Z,99.99
2016-08-19T04:34:09.950Z,99.99
2016-08-19T04:35:10.113Z,99.99
2016-08-19T04:36:10.080Z,99.99
2016-08-19T04:37:10.085Z,99.99
2016-08-19T04:38:10.086Z,99.99
2016-08-19T04:39:10.036Z,99.99
2016-08-19T04:40:09.968Z,99.99
2016-08-19T04:41:10.044Z,99.99
2016-08-19T04:42:10.057Z,99.99
2016-08-19T04:43:10.056Z,99.99
2016-08-19T04:44:09.980Z,99.99
2016-08-19T04:45:10.050Z,99.99
2016-08-19T04:46:10.020Z,99.99
2016-08-19T04:47:09.983Z,99.99
2016-08-19T04:48:10.055Z,99.99
2016-08-19T04:49:09.985Z,99.99
2016-08-19T04:50:10.069Z,99.99
2016-08-19T04:51:09.997Z,99.99
2016-08-19T04:52:10.015Z,99.99
2016-08-19T04:53:10.164Z,99.99
2016-08-19T04:54:10.086Z,99.99
2016-08-19T04:55:10.014Z,99.99
2016-08-19T04:56:10.094Z,99.99
2016-08-19T04:57:10.020Z,99.99
2016-08-19T04:58:10.025Z,99.99
2016-08-19T04:59:10.024Z,99.99
2016-08-19T05:00:10.099Z,99.99
2016-08-19T05:01:10.029Z,99.99
2016-08-19T05:02:10.042Z,99.99
2016-08-19T05:03:10.112Z,99.99
2016-08-19T05:04:10.246Z,99.99
2016-08-19T05:05:10.114Z,99.99
2016-08-19T05:06:10.120Z,99.99
2016-08-19T05:07:10.114Z,99.99
2016-08-19T05:08:10.120Z,99.99
2016-08-19T05:09:10.117Z,99.99
2016-08-19T05:10:10.056Z,99.99
2016-08-19T05:11:10.127Z,99.99
2016-08-19T05:12:10.052Z,99.99
2016-08-19T05:13:10.137Z,99.99
2016-08-19T05:14:10.067Z,99.99
2016-08-19T05:15:10.148Z,99.99
2016-08-19T05:16:10.081Z,99.99
2016-08-19T05:17:10.079Z,99.99
2016-08-19T05:18:10.105Z,99.99
2016-08-19T05:19:10.085Z,99.99
2016-08-19T05:20:10.073Z,99.99
2016-08-19T05:21:10.083Z,99.99
2016-08-19T05:22:10.082Z,99.99
2016-08-19T05:23:10.159Z,99.99
2016-08-19T05:24:10.103Z,99.99
2016-08-19T05:25:10.163Z,99.99
2016-08-19T05:26:10.098Z,99.99
2016-08-19T05:27:10.100Z,99.99
2016-08-19T05:28:10.109Z,99.99
2016-08-19T05:29:10.105Z,99.99
2016-08-19T05:30:10.184Z,99.99
2016-08-19T05:31:10.114Z,99.99
2016-08-19T05:32:10.114Z,99.99
2016-08-19T05:33:10.193Z,99.99
2016-08-19T05:34:10.128Z,99.99
2016-08-19T05:35:10.115Z,99.99
2016-08-19T05:36:10.122Z,99.99
2016-08-19T05:37:10.204Z,99.99
2016-08-19T05:38:10.142Z,99.99
2016-08-19T05:39:10.416Z,99.99
2016-08-19T05:40:10.234Z,99.99
2016-08-19T05:41:10.151Z,99.99
2016-08-19T05:42:10.228Z,99.99
2016-08-19T05:43:11.029Z,99.99
2016-08-19T05:44:10.162Z,99.99
2016-08-19T05:45:10.147Z,99.99
2016-08-19T05:46:10.178Z,99.99
2016-08-19T05:47:10.175Z,99.99
2016-08-19T05:48:10.188Z,99.99
2016-08-19T05:49:10.163Z,99.99
2016-08-19T05:50:10.170Z,99.99
2016-08-19T05:51:10.240Z,99.99
2016-08-19T05:52:10.273Z,99.99
2016-08-19T05:53:10.272Z,99.99
2016-08-19T05:54:10.259Z,99.99
2016-08-19T05:55:10.269Z,99.99
2016-08-19T05:56:10.296Z,99.99
2016-08-19T05:57:10.190Z,99.99
2016-08-19T05:58:10.194Z,99.99
2016-08-19T05:59:10.295Z,99.99
2016-08-19T06:00:10.272Z,99.99
2016-08-19T06:01:10.269Z,99.99
2016-08-19T06:02:10.278Z,99.99
2016-08-19T06:03:10.304Z,99.99
2016-08-19T06:04:10.298Z,99.99
2016-08-19T06:05:10.312Z,99.99
2016-08-19T06:06:10.997Z,99.99
2016-08-19T06:07:10.214Z,99.99
2016-08-19T06:08:10.243Z,99.99
2016-08-19T06:09:10.212Z,99.99
2016-08-19T06:10:10.290Z,99.99
2016-08-19T06:11:10.304Z,99.99
2016-08-19T06:12:10.227Z,99.99
2016-08-19T06:13:10.307Z,99.99
2016-08-19T06:14:10.299Z,99.99
2016-08-19T06:15:10.313Z,99.99
2016-08-19T06:16:10.238Z,99.99
2016-08-19T06:17:10.318Z,99.99
2016-08-19T06:18:10.334Z,99.99
2016-08-19T06:19:10.242Z,99.99
2016-08-19T06:20:10.330Z,99.1
2016-08-19T06:21:10.245Z,99.99
2016-08-19T06:22:10.846Z,99.99
2016-08-19T06:23:10.256Z,99.99
2016-08-19T06:24:10.264Z,99.99
2016-08-19T06:25:10.267Z,99.99
2016-08-19T06:26:10.267Z,99.99
2016-08-19T06:27:10.350Z,99.99
2016-08-19T06:28:10.270Z,99.78
2016-08-19T06:29:10.361Z,99.99
2016-08-19T06:30:10.281Z,99.73
2016-08-19T06:31:10.366Z,99.2
2016-08-19T06:32:10.374Z,99.2
2016-08-19T06:33:10.365Z,99.99
2016-08-19T06:34:10.286Z,98.72
2016-08-19T06:35:10.292Z,97.71
2016-08-19T06:36:10.393Z,99.01
2016-08-19T06:37:10.303Z,98.34
2016-08-19T06:38:11.480Z,96.56
2016-08-19T06:39:10.382Z,96.17
2016-08-19T06:40:10.312Z,95.36
2016-08-19T06:41:10.317Z,94.59
2016-08-19T06:42:10.406Z,95.6
2016-08-19T06:43:10.325Z,95.98
2016-08-19T06:44:10.394Z,97.28
2016-08-19T06:45:10.317Z,96.94
2016-08-19T06:46:10.332Z,97.42
2016-08-19T06:47:10.340Z,97.24
2016-08-19T06:48:10.333Z,96.85
2016-08-19T06:49:10.412Z,94.21
2016-08-19T06:50:10.422Z,93
2016-08-19T06:51:10.348Z,92.52
2016-08-19T06:52:10.421Z,91.03
2016-08-19T06:53:10.357Z,90.26
2016-08-19T06:54:11.080Z,90.73
2016-08-19T06:55:10.362Z,90.06
2016-08-19T06:56:10.433Z,92.61
2016-08-19T06:57:10.402Z,95.12
2016-08-19T06:58:10.436Z,93.96
2016-08-19T06:59:10.363Z,93.34
2016-08-19T07:00:10.377Z,91.22
2016-08-19T07:01:11.197Z,89.64
2016-08-19T07:02:10.386Z,89.78
2016-08-19T07:03:10.579Z,89.01
2016-08-19T07:04:10.459Z,88.53
2016-08-19T07:05:10.384Z,87.8
2016-08-19T07:06:10.381Z,88.57
2016-08-19T07:07:10.488Z,88.28
2016-08-19T07:08:10.467Z,88.38
2016-08-19T07:09:10.396Z,88.28
2016-08-19T07:10:11.066Z,87.46
2016-08-19T07:11:10.399Z,86.99
2016-08-19T07:12:10.408Z,86.35
2016-08-19T07:13:10.413Z,86.11
2016-08-19T07:14:10.422Z,85.82
2016-08-19T07:15:10.483Z,87.9
2016-08-19T07:16:10.422Z,88.71
2016-08-19T07:17:10.437Z,87.37
2016-08-19T07:18:10.519Z,85.93
2016-08-19T07:19:10.496Z,85.91
2016-08-19T07:20:10.521Z,84.47
2016-08-19T07:21:10.468Z,84.03
2016-08-19T07:22:10.430Z,82.78
2016-08-19T07:23:10.431Z,81.81
2016-08-19T07:24:10.515Z,84.03
2016-08-19T07:25:10.538Z,84.95
2016-08-19T07:26:11.645Z,85.24
2016-08-19T07:27:10.532Z,83.84
2016-08-19T07:28:10.529Z,83.2
2016-08-19T07:29:10.450Z,81.7
2016-08-19T07:30:10.458Z,80.2
2016-08-19T07:31:10.484Z,80.2
2016-08-19T07:32:10.543Z,79.95
2016-08-19T07:33:10.574Z,78.69
2016-08-19T07:34:10.508Z,78.79
2016-08-19T07:35:10.611Z,78.21
2016-08-19T07:36:10.499Z,77.92
2016-08-19T07:37:10.485Z,77.05
2016-08-19T07:38:10.597Z,76.37
2016-08-19T07:39:10.500Z,76.09
2016-08-19T07:40:10.585Z,75.93
2016-08-19T07:41:10.489Z,75.99
2016-08-19T07:42:11.585Z,76.57
2016-08-19T07:43:10.496Z,76.95
2016-08-19T07:44:10.587Z,78.17
2016-08-19T07:45:10.590Z,78.13
2016-08-19T07:46:10.587Z,78.27
2016-08-19T07:47:10.536Z,78.17
2016-08-19T07:48:10.714Z,78.46
2016-08-19T07:49:10.603Z,78.27
2016-08-19T07:50:10.697Z,76.63
2016-08-19T07:51:10.665Z,77.4
2016-08-19T07:52:10.567Z,80.54
2016-08-19T07:53:10.611Z,81.91
2016-08-19T07:54:10.606Z,81.63
2016-08-19T07:55:10.631Z,82.35
2016-08-19T07:56:10.612Z,82.93
2016-08-19T07:57:10.652Z,82.12
2016-08-19T07:58:11.182Z,80.43
2016-08-19T07:59:10.540Z,80.18
2016-08-19T08:00:10.624Z,80.46
2016-08-19T08:01:10.608Z,79.69
2016-08-19T08:02:10.563Z,80.08
2016-08-19T08:03:10.572Z,80.66
2016-08-19T08:04:10.625Z,80.18
2016-08-19T08:05:10.560Z,80.41
2016-08-19T08:06:10.565Z,79.64
2016-08-19T08:07:10.651Z,76.98
2016-08-19T08:08:10.570Z,74.89
2016-08-19T08:09:10.604Z,74
2016-08-19T08:10:10.579Z,74.29
2016-08-19T08:11:10.660Z,75.89
2016-08-19T08:12:10.654Z,78.67
2016-08-19T08:13:10.615Z,78.48
2016-08-19T08:14:11.541Z,78.29
2016-08-19T08:15:10.597Z,77.55
2016-08-19T08:16:10.775Z,77.01
2016-08-19T08:17:10.594Z,75.57
2016-08-19T08:18:10.611Z,76.03
2016-08-19T08:19:10.690Z,77.3
2016-08-19T08:20:10.626Z,77.75
2016-08-19T08:21:10.638Z,77.46
2016-08-19T08:22:10.687Z,76.98
2016-08-19T08:23:10.608Z,76.72
2016-08-19T08:24:10.616Z,76.92
2016-08-19T08:25:10.747Z,74.93
2016-08-19T08:26:10.691Z,73.84
2016-08-19T08:27:10.906Z,72.42
2016-08-19T08:28:10.629Z,70.34
2016-08-19T08:29:10.707Z,70.11
2016-08-19T08:30:11.207Z,70.01
2016-08-19T08:31:10.646Z,69.82
2016-08-19T08:32:10.649Z,68.56
2016-08-19T08:33:10.698Z,67.88
2016-08-19T08:34:10.717Z,67.82
2016-08-19T08:35:10.639Z,67.37
2016-08-19T08:36:10.730Z,65.85
2016-08-19T08:37:10.652Z,65.47
2016-08-19T08:38:10.664Z,64.92
2016-08-19T08:39:10.733Z,63.98
2016-08-19T08:40:10.742Z,63.81
2016-08-19T08:41:10.730Z,63.98
2016-08-19T08:42:10.664Z,64.72
2016-08-19T08:43:10.738Z,66.34
2016-08-19T08:44:10.667Z,67.72
2016-08-19T08:45:10.760Z,66.3
2016-08-19T08:46:11.070Z,64.78
2016-08-19T08:47:10.872Z,63.65
2016-08-19T08:48:11.734Z,62.71
2016-08-19T08:49:10.898Z,64.2
2016-08-19T08:50:11.033Z,64.27
2016-08-19T08:51:11.002Z,63.75
2016-08-19T08:52:10.893Z,61.84
2016-08-19T08:53:10.995Z,61.19
2016-08-19T08:54:10.738Z,60.22
2016-08-19T08:55:10.703Z,61.29
2016-08-19T08:56:10.709Z,60.71
2016-08-19T08:57:10.787Z,60.15
2016-08-19T08:58:10.861Z,60.47
2016-08-19T08:59:10.724Z,61.05
2016-08-19T09:00:10.720Z,61.65
2016-08-19T09:01:10.726Z,63.91
2016-08-19T09:02:11.692Z,63.85
2016-08-19T09:03:10.734Z,64.24
2016-08-19T09:04:10.736Z,65.17
2016-08-19T09:05:10.909Z,65.5
2016-08-19T09:06:10.737Z,65.66
2016-08-19T09:07:10.757Z,64.24
2016-08-19T09:08:10.827Z,64.14
2016-08-19T09:09:10.835Z,62.65
2016-08-19T09:10:10.750Z,62.65
2016-08-19T09:11:10.825Z,63.53
2016-08-19T09:12:10.816Z,64.56
2016-08-19T09:13:10.756Z,64.11
2016-08-19T09:14:10.767Z,62.78
2016-08-19T09:15:10.763Z,61.77
2016-08-19T09:16:10.765Z,61.09
2016-08-19T09:17:10.842Z,60.9
2016-08-19T09:18:11.301Z,59.9
2016-08-19T09:19:10.828Z,59.38
2016-08-19T09:20:10.883Z,58.82
2016-08-19T09:21:10.889Z,57.97
2016-08-19T09:22:10.787Z,56.57
2016-08-19T09:23:10.856Z,55.82
2016-08-19T09:24:10.795Z,55.43
2016-08-19T09:25:10.816Z,55.72
2016-08-19T09:26:10.932Z,55.16
2016-08-19T09:27:10.885Z,54.21
2016-08-19T09:28:10.878Z,53.95
2016-08-19T09:29:10.809Z,53.85
2016-08-19T09:30:10.987Z,54.21
2016-08-19T09:31:10.858Z,55.26
2016-08-19T09:32:10.973Z,54.65
2016-08-19T09:33:10.952Z,53.28
2016-08-19T09:34:10.998Z,52.44
2016-08-19T09:35:10.863Z,51.85
2016-08-19T09:36:10.919Z,51.46
2016-08-19T09:37:12.462Z,49.95
2016-08-19T09:38:10.935Z,49.93
2016-08-19T09:39:10.927Z,49.34
2016-08-19T09:40:10.846Z,49.17
2016-08-19T09:41:10.881Z,52.58
2016-08-19T09:42:10.854Z,54.1
2016-08-19T09:43:10.893Z,54.58
2016-08-19T09:44:10.910Z,54.97
2016-08-19T09:45:10.938Z,53.74
2016-08-19T09:46:10.929Z,51.51
2016-08-19T09:47:10.909Z,51.56
2016-08-19T09:48:10.932Z,52.67
2016-08-19T09:49:10.873Z,54.01
2016-08-19T09:50:11.432Z,55.13
2016-08-19T09:51:10.907Z,56.32
2016-08-19T09:52:10.952Z,57.89
2016-08-19T09:53:11.122Z,57.22
2016-08-19T09:54:10.884Z,55.24
2016-08-19T09:55:10.895Z,54.22
2016-08-19T09:56:11.012Z,52.79
2016-08-19T09:57:10.971Z,54.96
2016-08-19T09:58:10.924Z,55.03
2016-08-19T09:59:10.976Z,54.13
2016-08-19T10:00:10.972Z,53.83
2016-08-19T10:01:10.973Z,53.08
2016-08-19T10:02:10.903Z,52.35
2016-08-19T10:03:10.911Z,50.6
2016-08-19T10:04:11.086Z,50.26
2016-08-19T10:05:11.104Z,50.38
2016-08-19T10:06:10.966Z,50.92
2016-08-19T10:07:11.010Z,51.58
2016-08-19T10:08:11.072Z,51.84
2016-08-19T10:09:10.932Z,52.14
2016-08-19T10:10:11.004Z,52.23
2016-08-19T10:11:10.961Z,51.55
2016-08-19T10:12:11.699Z,50.58
2016-08-19T10:13:11.039Z,51.21
2016-08-19T10:14:11.008Z,51.12
2016-08-19T10:15:10.959Z,48.88
2016-08-19T10:16:10.979Z,48.63
2016-08-19T10:17:11.034Z,48.73
2016-08-19T10:18:10.955Z,48.39
2016-08-19T10:19:11.017Z,47.95
2016-08-19T10:20:10.969Z,47.41
2016-08-19T10:21:10.964Z,46.53
2016-08-19T10:22:11.070Z,47.41
2016-08-19T10:23:11.015Z,49.05
2016-08-19T10:24:10.992Z,51.21
2016-08-19T10:25:10.985Z,50.99
2016-08-19T10:26:11.170Z,51.39
2016-08-19T10:27:11.078Z,49.95
2016-08-19T10:28:10.996Z,48.63
2016-08-19T10:29:11.000Z,48.54
2016-08-19T10:30:11.354Z,49.68
2016-08-19T10:31:11.090Z,50.36
2016-08-19T10:32:11.038Z,50.82
2016-08-19T10:33:11.116Z,51.09
2016-08-19T10:34:11.081Z,52.33
2016-08-19T10:35:11.069Z,52.03
2016-08-19T10:36:11.196Z,50.6
2016-08-19T10:37:11.123Z,49.8
2016-08-19T10:38:11.161Z,50.63
2016-08-19T10:39:11.743Z,50.04
2016-08-19T10:40:11.354Z,49.87
2016-08-19T10:41:11.364Z,50.48
2016-08-19T10:42:11.178Z,49.71
2016-08-19T10:43:11.114Z,47.8
2016-08-19T10:44:11.103Z,46.31
2016-08-19T10:45:11.116Z,46.22
2016-08-19T10:46:11.120Z,49.15
2016-08-19T10:47:11.140Z,48.63
2016-08-19T10:48:11.159Z,48.95
2016-08-19T10:49:11.142Z,50.95
2016-08-19T10:50:11.048Z,50.82
2016-08-19T10:51:11.057Z,50.53
2016-08-19T10:52:11.163Z,49.87
2016-08-19T10:53:11.253Z,50.65
2016-08-19T10:54:11.065Z,51.04
2016-08-19T10:55:11.303Z,52.4
2016-08-19T10:56:11.077Z,51.43
2016-08-19T10:57:11.086Z,50.14
2016-08-19T10:58:11.087Z,48.85
2016-08-19T10:59:11.221Z,48.78
2016-08-19T11:00:11.092Z,48.41
2016-08-19T11:01:11.162Z,47.92
2016-08-19T11:02:11.226Z,48.61
2016-08-19T11:03:11.203Z,48.41
2016-08-19T11:04:11.114Z,50.8
2016-08-19T11:05:11.108Z,52.15
2016-08-19T11:06:11.350Z,53.37
2016-08-19T11:07:11.352Z,53.2
2016-08-19T11:08:11.611Z,51.21
2016-08-19T11:09:11.248Z,50.78
2016-08-19T11:10:11.353Z,50.43
2016-08-19T11:11:11.500Z,49.39
2016-08-19T11:12:11.343Z,48.9
2016-08-19T11:13:11.488Z,49.17
2016-08-19T11:14:11.385Z,48.34
2016-08-19T11:15:11.562Z,47.56
2016-08-19T11:16:11.479Z,46.73
2016-08-19T11:17:11.424Z,45.7
2016-08-19T11:18:11.531Z,44.63
2016-08-19T11:19:11.415Z,44.73
2016-08-19T11:20:11.325Z,45.51
2016-08-19T11:21:11.346Z,46.44
2016-08-19T11:22:11.655Z,45.26
2016-08-19T11:23:11.532Z,45.39
2016-08-19T11:24:11.598Z,45.68
2016-08-19T11:25:11.458Z,45.58
2016-08-19T11:26:11.343Z,45.19
2016-08-19T11:27:11.535Z,46.29
2016-08-19T11:28:11.573Z,46.14
2016-08-19T11:29:11.507Z,47.31
2016-08-19T11:30:11.478Z,46.41
2016-08-19T11:31:12.473Z,46.41
2016-08-19T11:32:11.459Z,46.22
2016-08-19T11:33:11.449Z,45.65
2016-08-19T11:34:11.462Z,46.83
2016-08-19T11:35:11.664Z,47.49
2016-08-19T11:36:12.160Z,46.97
2016-08-19T11:37:11.480Z,47.15
2016-08-19T11:38:11.609Z,47.66
2016-08-19T11:39:11.568Z,46.91
2016-08-19T11:40:11.511Z,46.64
2016-08-19T11:41:11.461Z,46.44
2016-08-19T11:42:11.398Z,46.59
2016-08-19T11:43:11.673Z,46.12
2016-08-19T11:44:11.360Z,46.97
2016-08-19T11:45:11.662Z,45.46
2016-08-19T11:46:11.761Z,45.26
2016-08-19T11:47:11.658Z,44.63
2016-08-19T11:48:11.641Z,45.19
2016-08-19T11:49:12.813Z,46.1
2016-08-19T11:50:11.492Z,48.61
2016-08-19T11:51:12.181Z,50.75
2016-08-19T11:52:11.539Z,50.99
2016-08-19T11:53:11.595Z,50.8
2016-08-19T11:54:11.646Z,50.46
2016-08-19T11:55:11.607Z,51.11
2016-08-19T11:56:11.546Z,51.67
2016-08-19T11:57:11.600Z,51.55
2016-08-19T11:58:11.570Z,51.26
2016-08-19T11:59:11.268Z,50.74
2016-08-19T12:00:11.443Z,50.31
2016-08-19T12:01:11.308Z,49.29
2016-08-19T12:02:11.291Z,49.51
2016-08-19T12:03:11.396Z,48.85
2016-08-19T12:04:11.391Z,50.41
2016-08-19T12:05:11.366Z,49.8
2016-08-19T12:06:11.286Z,49.76
2016-08-19T12:07:11.287Z,48.71
2016-08-19T12:08:11.360Z,47.83
2016-08-19T12:09:11.371Z,48.05
2016-08-19T12:10:11.373Z,49.58
2016-08-19T12:11:11.425Z,49.07
2016-08-19T12:12:11.373Z,48.03
2016-08-19T12:13:11.353Z,47.76
2016-08-19T12:14:11.398Z,47.17
2016-08-19T12:15:11.391Z,47.17
2016-08-19T12:16:11.322Z,46.44
2016-08-19T12:17:11.344Z,45
2016-08-19T12:18:11.483Z,45.9
2016-08-19T12:19:11.399Z,46
2016-08-19T12:20:11.486Z,45.03
2016-08-19T12:21:11.405Z,45.22
2016-08-19T12:22:11.519Z,45.34
2016-08-19T12:23:11.418Z,45.25
2016-08-19T12:24:11.426Z,45.2
2016-08-19T12:25:11.348Z,45.28
2016-08-19T12:26:11.416Z,45.68
2016-08-19T12:27:11.427Z,46.66
2016-08-19T12:28:11.369Z,46.78
2016-08-19T12:29:11.412Z,45.15
2016-08-19T12:30:11.360Z,45.36
2016-08-19T12:31:11.436Z,45.44
2016-08-19T12:32:11.454Z,47.17
2016-08-19T12:33:11.475Z,48.25
2016-08-19T12:34:11.454Z,46.83
2016-08-19T12:35:11.481Z,44.44
2016-08-19T12:36:11.382Z,45.42
2016-08-19T12:37:11.378Z,46.3
2016-08-19T12:38:11.461Z,45.78
2016-08-19T12:39:11.462Z,45.98
2016-08-19T12:40:11.505Z,47.03
2016-08-19T12:41:11.491Z,47.66
2016-08-19T12:42:11.395Z,47.69
2016-08-19T12:43:11.552Z,46.83
2016-08-19T12:44:11.423Z,45.88
2016-08-19T12:45:11.485Z,45.39
2016-08-19T12:46:11.416Z,45.39
2016-08-19T12:47:11.489Z,43.37
2016-08-19T12:48:11.580Z,43.61
2016-08-19T12:49:11.425Z,43.88
2016-08-19T12:50:11.417Z,44.07
2016-08-19T12:51:11.455Z,45.12
2016-08-19T12:52:11.434Z,46.32
2016-08-19T12:53:11.509Z,47.66
2016-08-19T12:54:11.426Z,47.34